Beo+71405 — YT2505 — position and weather

sailwx.info

Track history (hours):
 
Tides and Currents Weather Stations Pressure Air Temp Water Temp Dewpoint Dewpoint Depression Visibility Wind Speed Wind Dir Waves Ship Positions

Beo+71405

Last reported at 2018-Jul-13 14:44 UTC. Time now 2018-Jul-17 16:53 UTC.
Position N 44°41' E 020°09'.

Length 156 m; draft 2.2 m.

Type: Wing in ground effect craft. MMSI: 279202505.

Date/timePositionNaut miles runAvg speedWind from/ knotsBaromVisibWave heightAir tempDewpointWater temp
2018-Jul-13 14:44N 44°41' E 020°09'2 2.6
2018-Jul-13 14:00N 44°41' E 020°12'2 3.6
2018-Jul-13 13:30N 44°43' E 020°13'1 2.4
2018-Jul-13 13:00N 44°42' E 020°14'2 3.0
2018-Jul-13 12:30N 44°40' E 020°14'2 3.2
2018-Jul-13 11:45N 44°40' E 020°18'1 3.8
2018-Jul-13 11:29N 44°41' E 020°18'2 3.9
2018-Jul-13 11:00N 44°43' E 020°18'2 3.8
2018-Jul-13 10:30N 44°45' E 020°20'2 4.0
2018-Jul-13 10:00N 44°46' E 020°21'2 3.9
2018-Jul-13 09:30N 44°48' E 020°23'2 3.8
2018-Jul-13 09:00N 44°48' E 020°26'2 3.2
2018-Jul-13 08:30N 44°50' E 020°27'1 2.4
2018-Jul-13 08:00N 44°50' E 020°28'0 0.0
2018-Jul-13 07:30N 44°50' E 020°28'0 0.0
2018-Jul-13 07:00N 44°50' E 020°28'0 0.0
2018-Jul-13 06:30N 44°50' E 020°28'0 0.0
2018-Jul-13 06:00N 44°50' E 020°28'0 0.0
2018-Jul-13 05:30N 44°50' E 020°28'0 0.0
2018-Jul-13 05:00N 44°50' E 020°28'0 0.0
2018-Jul-13 04:30N 44°50' E 020°28'0 0.0
2018-Jul-13 04:00N 44°50' E 020°28'0 0.0
2018-Jul-13 03:30N 44°50' E 020°28'0 0.0
2018-Jul-13 03:00N 44°50' E 020°28'0 0.0
2018-Jul-13 02:30N 44°50' E 020°28'0 0.0
2018-Jul-13 02:00N 44°50' E 020°28'0 0.0
2018-Jul-13 01:30N 44°50' E 020°28'0 0.0
2018-Jul-13 01:00N 44°50' E 020°28'0 0.0
2018-Jul-13 00:30N 44°50' E 020°28'0 0.0
2018-Jul-13 00:00N 44°50' E 020°28'0 0.0
2018-Jul-12 23:31N 44°50' E 020°28'0 0.0
2018-Jul-12 23:01N 44°50' E 020°28'0 0.0
2018-Jul-12 22:31N 44°50' E 020°28'0 0.0
2018-Jul-12 22:01N 44°50' E 020°28'0 0.0
2018-Jul-12 21:31N 44°50' E 020°28'0 0.0
2018-Jul-12 21:01N 44°50' E 020°28'0 0.0
2018-Jul-12 20:31N 44°50' E 020°28'0 0.0
2018-Jul-12 20:01N 44°50' E 020°28'0 0.0
2018-Jul-12 19:31N 44°50' E 020°28'0 0.0
2018-Jul-12 19:01N 44°50' E 020°28'0 0.0
2018-Jul-12 18:31N 44°50' E 020°28'0 0.0
2018-Jul-12 18:01N 44°50' E 020°28'0 0.0
2018-Jul-12 17:31N 44°50' E 020°28'0 0.0
2018-Jul-12 17:01N 44°50' E 020°28'0 0.0
2018-Jul-12 16:31N 44°50' E 020°28'0 0.0
2018-Jul-12 16:01N 44°50' E 020°28'0 0.0
2018-Jul-12 15:31N 44°50' E 020°28'0 0.0
2018-Jul-12 15:01N 44°50' E 020°28'0 0.1
2018-Jul-12 14:31N 44°50' E 020°28'0 0.4
2018-Jul-12 14:01N 44°50' E 020°28'0 0.0
2018-Jul-12 13:31N 44°50' E 020°28'0 0.0
2018-Jul-12 13:01N 44°50' E 020°28'0 0.0
2018-Jul-12 12:31N 44°50' E 020°28'0 0.1
2018-Jul-12 12:01N 44°50' E 020°28'0 0.5
2018-Jul-12 11:31N 44°50' E 020°28'1 2.7
2018-Jul-12 11:00N 44°50' E 020°30'2 3.4
2018-Jul-12 10:31N 44°50' E 020°32'2 3.4
2018-Jul-12 10:00N 44°51' E 020°34'2 3.4
2018-Jul-12 09:31N 44°51' E 020°37'2 3.3
2018-Jul-12 09:01N 44°50' E 020°39'2 3.3
2018-Jul-12 08:26N 44°48' E 020°38'13 1.3
2018-Jul-11 22:59N 44°40' E 020°51'0 0.0
2018-Jul-11 20:34N 44°40' E 020°51'0 0.0
2018-Jul-11 20:29N 44°40' E 020°51'1 1.4
2018-Jul-11 20:00N 44°40' E 020°52'2 3.2
2018-Jul-11 19:30N 44°40' E 020°54'2 3.5
2018-Jul-11 18:52N 44°41' E 020°57'1 3.5
2018-Jul-11 18:28N 44°42' E 020°58'25 3.1
2018-Jul-11 10:18N 44°46' E 021°34'1 3.3
2018-Jul-11 10:00N 44°46' E 021°35'2 3.4
2018-Jul-11 09:30N 44°44' E 021°36'2 3.1
2018-Jul-11 09:01N 44°43' E 021°37'2 3.0
2018-Jul-11 08:26N 44°42' E 021°39'1 3.4
2018-Jul-11 08:00N 44°41' E 021°40'16 1.1
2018-Jul-10 18:17N 44°36' E 022°01'1 3.5
2018-Jul-10 18:00N 44°35' E 022°02'2 3.7
2018-Jul-10 17:30N 44°33' E 022°02'2 3.8
2018-Jul-10 17:00N 44°32' E 022°04'2 3.7
2018-Jul-10 16:30N 44°30' E 022°05'2 4.1
2018-Jul-10 16:00N 44°29' E 022°07'2 4.0
2018-Jul-10 15:30N 44°29' E 022°10'  
Track history (hours):
 
Tides and Currents Weather Stations Pressure Air Temp Water Temp Dewpoint Dewpoint Depression Visibility Wind Speed Wind Dir Waves Ship Positions

Beo+71405

Last reported at 2018-Jul-13 14:44 UTC. Time now 2018-Jul-17 16:53 UTC.
Position N 44°41' E 020°09'.

Length 156 m; draft 2.2 m.

Type: Wing in ground effect craft. MMSI: 279202505.

Date/timePositionNaut miles runAvg speedWind from/ knotsBaromVisibWave heightAir tempDewpointWater temp
2018-Jul-13 14:44N 44°41' E 020°09'2 2.6
2018-Jul-13 14:00N 44°41' E 020°12'2 3.6
2018-Jul-13 13:30N 44°43' E 020°13'1 2.4
2018-Jul-13 13:00N 44°42' E 020°14'2 3.0
2018-Jul-13 12:30N 44°40' E 020°14'2 3.2
2018-Jul-13 11:45N 44°40' E 020°18'1 3.8
2018-Jul-13 11:29N 44°41' E 020°18'2 3.9
2018-Jul-13 11:00N 44°43' E 020°18'2 3.8
2018-Jul-13 10:30N 44°45' E 020°20'2 4.0
2018-Jul-13 10:00N 44°46' E 020°21'2 3.9
2018-Jul-13 09:30N 44°48' E 020°23'2 3.8
2018-Jul-13 09:00N 44°48' E 020°26'2 3.2
2018-Jul-13 08:30N 44°50' E 020°27'1 2.4
2018-Jul-13 08:00N 44°50' E 020°28'0 0.0
2018-Jul-13 07:30N 44°50' E 020°28'0 0.0
2018-Jul-13 07:00N 44°50' E 020°28'0 0.0
2018-Jul-13 06:30N 44°50' E 020°28'0 0.0
2018-Jul-13 06:00N 44°50' E 020°28'0 0.0
2018-Jul-13 05:30N 44°50' E 020°28'0 0.0
2018-Jul-13 05:00N 44°50' E 020°28'0 0.0
2018-Jul-13 04:30N 44°50' E 020°28'0 0.0
2018-Jul-13 04:00N 44°50' E 020°28'0 0.0
2018-Jul-13 03:30N 44°50' E 020°28'0 0.0
2018-Jul-13 03:00N 44°50' E 020°28'0 0.0
2018-Jul-13 02:30N 44°50' E 020°28'0 0.0
2018-Jul-13 02:00N 44°50' E 020°28'0 0.0
2018-Jul-13 01:30N 44°50' E 020°28'0 0.0
2018-Jul-13 01:00N 44°50' E 020°28'0 0.0
2018-Jul-13 00:30N 44°50' E 020°28'0 0.0
2018-Jul-13 00:00N 44°50' E 020°28'0 0.0
2018-Jul-12 23:31N 44°50' E 020°28'0 0.0
2018-Jul-12 23:01N 44°50' E 020°28'0 0.0
2018-Jul-12 22:31N 44°50' E 020°28'0 0.0
2018-Jul-12 22:01N 44°50' E 020°28'0 0.0
2018-Jul-12 21:31N 44°50' E 020°28'0 0.0
2018-Jul-12 21:01N 44°50' E 020°28'0 0.0
2018-Jul-12 20:31N 44°50' E 020°28'0 0.0
2018-Jul-12 20:01N 44°50' E 020°28'0 0.0
2018-Jul-12 19:31N 44°50' E 020°28'0 0.0
2018-Jul-12 19:01N 44°50' E 020°28'0 0.0
2018-Jul-12 18:31N 44°50' E 020°28'0 0.0
2018-Jul-12 18:01N 44°50' E 020°28'0 0.0
2018-Jul-12 17:31N 44°50' E 020°28'0 0.0
2018-Jul-12 17:01N 44°50' E 020°28'0 0.0
2018-Jul-12 16:31N 44°50' E 020°28'0 0.0
2018-Jul-12 16:01N 44°50' E 020°28'0 0.0
2018-Jul-12 15:31N 44°50' E 020°28'0 0.0
2018-Jul-12 15:01N 44°50' E 020°28'0 0.1
2018-Jul-12 14:31N 44°50' E 020°28'0 0.4
2018-Jul-12 14:01N 44°50' E 020°28'0 0.0
2018-Jul-12 13:31N 44°50' E 020°28'0 0.0
2018-Jul-12 13:01N 44°50' E 020°28'0 0.0
2018-Jul-12 12:31N 44°50' E 020°28'0 0.1
2018-Jul-12 12:01N 44°50' E 020°28'0 0.5
2018-Jul-12 11:31N 44°50' E 020°28'1 2.7
2018-Jul-12 11:00N 44°50' E 020°30'2 3.4
2018-Jul-12 10:31N 44°50' E 020°32'2 3.4
2018-Jul-12 10:00N 44°51' E 020°34'2 3.4
2018-Jul-12 09:31N 44°51' E 020°37'2 3.3
2018-Jul-12 09:01N 44°50' E 020°39'2 3.3
2018-Jul-12 08:26N 44°48' E 020°38'13 1.3
2018-Jul-11 22:59N 44°40' E 020°51'0 0.0
2018-Jul-11 20:34N 44°40' E 020°51'0 0.0
2018-Jul-11 20:29N 44°40' E 020°51'1 1.4
2018-Jul-11 20:00N 44°40' E 020°52'2 3.2
2018-Jul-11 19:30N 44°40' E 020°54'2 3.5
2018-Jul-11 18:52N 44°41' E 020°57'1 3.5
2018-Jul-11 18:28N 44°42' E 020°58'25 3.1
2018-Jul-11 10:18N 44°46' E 021°34'1 3.3
2018-Jul-11 10:00N 44°46' E 021°35'2 3.4
2018-Jul-11 09:30N 44°44' E 021°36'2 3.1
2018-Jul-11 09:01N 44°43' E 021°37'2 3.0
2018-Jul-11 08:26N 44°42' E 021°39'1 3.4
2018-Jul-11 08:00N 44°41' E 021°40'16 1.1
2018-Jul-10 18:17N 44°36' E 022°01'1 3.5
2018-Jul-10 18:00N 44°35' E 022°02'2 3.7
2018-Jul-10 17:30N 44°33' E 022°02'2 3.8
2018-Jul-10 17:00N 44°32' E 022°04'2 3.7
2018-Jul-10 16:30N 44°30' E 022°05'2 4.1
2018-Jul-10 16:00N 44°29' E 022°07'2 4.0
2018-Jul-10 15:30N 44°29' E 022°10'  

Dump ship's entire track history